sensor_id;sensor_type;location;lat;lon;timestamp;temperature;humidity
48728;DHT22;34527;45.618;5.130;2023-06-14T00:00:52;18.90;99.90
48728;DHT22;34527;45.618;5.130;2023-06-14T00:03:18;18.90;99.90
48728;DHT22;34527;45.618;5.130;2023-06-14T00:05:47;18.80;99.90
48728;DHT22;34527;45.618;5.130;2023-06-14T00:08:14;18.80;99.90
48728;DHT22;34527;45.618;5.130;2023-06-14T00:10:40;18.80;99.90
48728;DHT22;34527;45.618;5.130;2023-06-14T00:13:08;18.80;99.90
48728;DHT22;34527;45.618;5.130;2023-06-14T00:15:33;18.80;99.90
48728;DHT22;34527;45.618;5.130;2023-06-14T00:17:59;18.80;99.90
48728;DHT22;34527;45.618;5.130;2023-06-14T00:20:27;18.80;99.90
48728;DHT22;34527;45.618;5.130;2023-06-14T00:22:53;18.70;99.90
48728;DHT22;34527;45.618;5.130;2023-06-14T00:25:22;18.70;99.90
48728;DHT22;34527;45.618;5.130;2023-06-14T00:27:48;18.70;99.90
48728;DHT22;34527;45.618;5.130;2023-06-14T00:30:14;18.70;99.90
48728;DHT22;34527;45.618;5.130;2023-06-14T00:32:40;18.70;99.90
48728;DHT22;34527;45.618;5.130;2023-06-14T00:35:08;18.70;99.90
48728;DHT22;34527;45.618;5.130;2023-06-14T00:37:34;18.70;99.90
48728;DHT22;34527;45.618;5.130;2023-06-14T00:39:59;18.60;99.90
48728;DHT22;34527;45.618;5.130;2023-06-14T00:42:26;18.60;99.90
48728;DHT22;34527;45.618;5.130;2023-06-14T00:44:52;18.60;99.90
48728;DHT22;34527;45.618;5.130;2023-06-14T00:47:18;18.50;99.90
48728;DHT22;34527;45.618;5.130;2023-06-14T00:49:45;18.50;99.90
48728;DHT22;34527;45.618;5.130;2023-06-14T00:52:11;18.40;99.90
48728;DHT22;34527;45.618;5.130;2023-06-14T00:54:39;18.50;99.90
48728;DHT22;34527;45.618;5.130;2023-06-14T00:57:05;18.40;99.90
48728;DHT22;34527;45.618;5.130;2023-06-14T00:59:31;18.40;99.90
48728;DHT22;34527;45.618;5.130;2023-06-14T01:01:57;18.40;99.90
48728;DHT22;34527;45.618;5.130;2023-06-14T01:04:23;18.30;99.90
48728;DHT22;34527;45.618;5.130;2023-06-14T01:09:27;18.20;99.90
48728;DHT22;34527;45.618;5.130;2023-06-14T01:12:16;18.20;99.90
48728;DHT22;34527;45.618;5.130;2023-06-14T01:14:48;18.20;99.90
48728;DHT22;34527;45.618;5.130;2023-06-14T01:17:14;18.20;99.90
48728;DHT22;34527;45.618;5.130;2023-06-14T01:19:45;18.20;99.90
48728;DHT22;34527;45.618;5.130;2023-06-14T01:22:11;18.20;99.90
48728;DHT22;34527;45.618;5.130;2023-06-14T01:24:36;18.10;99.90
48728;DHT22;34527;45.618;5.130;2023-06-14T01:27:05;18.10;99.90
48728;DHT22;34527;45.618;5.130;2023-06-14T01:29:31;18.10;99.90
48728;DHT22;34527;45.618;5.130;2023-06-14T01:31:58;18.10;99.90
48728;DHT22;34527;45.618;5.130;2023-06-14T01:34:25;18.10;99.90
48728;DHT22;34527;45.618;5.130;2023-06-14T01:36:52;18.00;99.90
48728;DHT22;34527;45.618;5.130;2023-06-14T01:39:20;18.00;99.90
48728;DHT22;34527;45.618;5.130;2023-06-14T01:41:47;18.00;99.90
48728;DHT22;34527;45.618;5.130;2023-06-14T01:44:16;18.10;99.90
48728;DHT22;34527;45.618;5.130;2023-06-14T01:46:43;18.10;99.90
48728;DHT22;34527;45.618;5.130;2023-06-14T01:49:10;18.10;99.90
48728;DHT22;34527;45.618;5.130;2023-06-14T01:51:36;18.10;99.90
48728;DHT22;34527;45.618;5.130;2023-06-14T01:54:02;18.10;99.90
48728;DHT22;34527;45.618;5.130;2023-06-14T01:56:27;18.00;99.90
48728;DHT22;34527;45.618;5.130;2023-06-14T01:58:53;18.00;99.90
48728;DHT22;34527;45.618;5.130;2023-06-14T02:01:19;18.00;99.90
48728;DHT22;34527;45.618;5.130;2023-06-14T02:03:46;18.10;99.90
48728;DHT22;34527;45.618;5.130;2023-06-14T02:06:12;18.00;99.90
48728;DHT22;34527;45.618;5.130;2023-06-14T02:08:38;18.10;99.90
48728;DHT22;34527;45.618;5.130;2023-06-14T02:11:03;18.10;99.90
48728;DHT22;34527;45.618;5.130;2023-06-14T02:13:29;18.10;99.90
48728;DHT22;34527;45.618;5.130;2023-06-14T02:15:54;18.10;99.90
48728;DHT22;34527;45.618;5.130;2023-06-14T02:18:21;18.10;99.90
48728;DHT22;34527;45.618;5.130;2023-06-14T02:20:47;18.10;99.90
48728;DHT22;34527;45.618;5.130;2023-06-14T02:23:13;18.10;99.90
48728;DHT22;34527;45.618;5.130;2023-06-14T02:25:38;18.10;99.90
48728;DHT22;34527;45.618;5.130;2023-06-14T02:28:05;18.10;99.90
48728;DHT22;34527;45.618;5.130;2023-06-14T02:30:31;18.10;99.90
48728;DHT22;34527;45.618;5.130;2023-06-14T02:32:56;18.10;99.90
48728;DHT22;34527;45.618;5.130;2023-06-14T02:35:22;18.10;99.90
48728;DHT22;34527;45.618;5.130;2023-06-14T02:37:52;18.10;99.90
48728;DHT22;34527;45.618;5.130;2023-06-14T02:40:18;18.10;99.90
48728;DHT22;34527;45.618;5.130;2023-06-14T02:42:44;18.10;99.90
48728;DHT22;34527;45.618;5.130;2023-06-14T02:45:09;18.10;99.90
48728;DHT22;34527;45.618;5.130;2023-06-14T02:47:35;18.10;99.90
48728;DHT22;34527;45.618;5.130;2023-06-14T02:50:01;18.10;99.90
48728;DHT22;34527;45.618;5.130;2023-06-14T02:52:28;18.10;99.90
48728;DHT22;34527;45.618;5.130;2023-06-14T02:54:53;18.10;99.90
48728;DHT22;34527;45.618;5.130;2023-06-14T02:57:22;18.10;99.90
48728;DHT22;34527;45.618;5.130;2023-06-14T02:59:48;18.10;99.90
48728;DHT22;34527;45.618;5.130;2023-06-14T03:02:14;18.10;99.90
48728;DHT22;34527;45.618;5.130;2023-06-14T03:04:40;18.10;99.90
48728;DHT22;34527;45.618;5.130;2023-06-14T03:07:06;18.10;99.90
48728;DHT22;34527;45.618;5.130;2023-06-14T03:09:37;18.10;99.90
48728;DHT22;34527;45.618;5.130;2023-06-14T03:12:04;18.10;99.90
48728;DHT22;34527;45.618;5.130;2023-06-14T03:14:32;18.10;99.90
48728;DHT22;34527;45.618;5.130;2023-06-14T03:16:58;18.10;99.90
48728;DHT22;34527;45.618;5.130;2023-06-14T03:19:24;18.10;99.90
48728;DHT22;34527;45.618;5.130;2023-06-14T03:21:51;18.00;99.90
48728;DHT22;34527;45.618;5.130;2023-06-14T03:24:17;18.00;99.90
48728;DHT22;34527;45.618;5.130;2023-06-14T03:26:43;18.00;99.90
48728;DHT22;34527;45.618;5.130;2023-06-14T03:29:09;18.00;99.90
48728;DHT22;34527;45.618;5.130;2023-06-14T03:31:35;18.00;99.90
48728;DHT22;34527;45.618;5.130;2023-06-14T03:34:01;18.00;99.90
48728;DHT22;34527;45.618;5.130;2023-06-14T03:36:27;18.00;99.90
48728;DHT22;34527;45.618;5.130;2023-06-14T03:38:53;17.80;99.90
48728;DHT22;34527;45.618;5.130;2023-06-14T03:41:20;17.90;99.90
48728;DHT22;34527;45.618;5.130;2023-06-14T03:43:46;17.80;99.90
48728;DHT22;34527;45.618;5.130;2023-06-14T03:46:11;17.90;99.90
48728;DHT22;34527;45.618;5.130;2023-06-14T03:48:37;17.90;99.90
48728;DHT22;34527;45.618;5.130;2023-06-14T03:51:04;17.80;99.90
48728;DHT22;34527;45.618;5.130;2023-06-14T03:53:30;17.80;99.90
48728;DHT22;34527;45.618;5.130;2023-06-14T03:55:56;17.80;99.90
48728;DHT22;34527;45.618;5.130;2023-06-14T03:58:22;17.70;99.90
48728;DHT22;34527;45.618;5.130;2023-06-14T04:00:48;17.70;99.90
48728;DHT22;34527;45.618;5.130;2023-06-14T04:03:14;17.70;99.90
48728;DHT22;34527;45.618;5.130;2023-06-14T04:05:41;17.80;99.90
48728;DHT22;34527;45.618;5.130;2023-06-14T04:08:09;17.70;99.90
48728;DHT22;34527;45.618;5.130;2023-06-14T04:10:35;17.70;99.90
48728;DHT22;34527;45.618;5.130;2023-06-14T04:13:01;17.60;99.90
48728;DHT22;34527;45.618;5.130;2023-06-14T04:15:27;17.60;99.90
48728;DHT22;34527;45.618;5.130;2023-06-14T04:17:54;17.70;99.90
48728;DHT22;34527;45.618;5.130;2023-06-14T04:20:22;17.60;99.90
48728;DHT22;34527;45.618;5.130;2023-06-14T04:22:50;17.60;99.90
48728;DHT22;34527;45.618;5.130;2023-06-14T04:25:16;17.60;99.90
48728;DHT22;34527;45.618;5.130;2023-06-14T04:27:42;17.60;99.90
48728;DHT22;34527;45.618;5.130;2023-06-14T04:30:08;17.60;99.90
48728;DHT22;34527;45.618;5.130;2023-06-14T04:32:34;17.60;99.90
48728;DHT22;34527;45.618;5.130;2023-06-14T04:35:04;17.60;99.90
48728;DHT22;34527;45.618;5.130;2023-06-14T04:37:30;17.80;99.90
48728;DHT22;34527;45.618;5.130;2023-06-14T04:39:56;17.80;99.90
48728;DHT22;34527;45.618;5.130;2023-06-14T04:42:23;17.80;99.90
48728;DHT22;34527;45.618;5.130;2023-06-14T04:44:51;17.90;99.90
48728;DHT22;34527;45.618;5.130;2023-06-14T04:47:17;17.90;99.90
48728;DHT22;34527;45.618;5.130;2023-06-14T04:49:43;17.90;99.90
48728;DHT22;34527;45.618;5.130;2023-06-14T04:52:10;17.90;99.90
48728;DHT22;34527;45.618;5.130;2023-06-14T04:54:39;17.90;99.90
48728;DHT22;34527;45.618;5.130;2023-06-14T04:57:07;17.90;99.90
48728;DHT22;34527;45.618;5.130;2023-06-14T04:59:34;18.00;99.90
48728;DHT22;34527;45.618;5.130;2023-06-14T05:02:01;18.00;99.90
48728;DHT22;34527;45.618;5.130;2023-06-14T05:04:27;18.10;99.90
48728;DHT22;34527;45.618;5.130;2023-06-14T05:06:53;18.10;99.90
48728;DHT22;34527;45.618;5.130;2023-06-14T05:09:20;18.10;99.90
48728;DHT22;34527;45.618;5.130;2023-06-14T05:11:46;18.10;99.90
48728;DHT22;34527;45.618;5.130;2023-06-14T05:14:13;18.20;99.90
48728;DHT22;34527;45.618;5.130;2023-06-14T05:16:39;18.20;99.90
48728;DHT22;34527;45.618;5.130;2023-06-14T05:19:05;18.30;99.90
48728;DHT22;34527;45.618;5.130;2023-06-14T05:21:31;18.30;99.90
48728;DHT22;34527;45.618;5.130;2023-06-14T05:23:59;18.40;99.90
48728;DHT22;34527;45.618;5.130;2023-06-14T05:26:25;18.40;99.90
48728;DHT22;34527;45.618;5.130;2023-06-14T05:28:54;18.50;99.90
48728;DHT22;34527;45.618;5.130;2023-06-14T05:31:24;18.50;99.90
48728;DHT22;34527;45.618;5.130;2023-06-14T05:33:51;18.60;99.90
48728;DHT22;34527;45.618;5.130;2023-06-14T05:36:17;18.60;99.90
48728;DHT22;34527;45.618;5.130;2023-06-14T05:38:43;18.60;99.90
48728;DHT22;34527;45.618;5.130;2023-06-14T05:41:09;18.80;99.90
48728;DHT22;34527;45.618;5.130;2023-06-14T05:43:34;18.80;99.90
48728;DHT22;34527;45.618;5.130;2023-06-14T05:46:00;18.80;99.90
48728;DHT22;34527;45.618;5.130;2023-06-14T05:48:25;18.90;99.90
48728;DHT22;34527;45.618;5.130;2023-06-14T05:50:51;19.00;99.90
48728;DHT22;34527;45.618;5.130;2023-06-14T05:53:17;19.00;99.90
48728;DHT22;34527;45.618;5.130;2023-06-14T05:55:42;19.10;99.90
48728;DHT22;34527;45.618;5.130;2023-06-14T05:58:08;19.10;99.90
48728;DHT22;34527;45.618;5.130;2023-06-14T06:00:33;19.20;99.90
48728;DHT22;34527;45.618;5.130;2023-06-14T06:02:59;19.20;99.90
48728;DHT22;34527;45.618;5.130;2023-06-14T06:05:26;19.30;99.90
48728;DHT22;34527;45.618;5.130;2023-06-14T06:07:51;19.30;99.90
48728;DHT22;34527;45.618;5.130;2023-06-14T06:10:17;19.40;99.90
48728;DHT22;34527;45.618;5.130;2023-06-14T06:12:43;19.40;99.90
48728;DHT22;34527;45.618;5.130;2023-06-14T06:15:09;19.50;99.90
48728;DHT22;34527;45.618;5.130;2023-06-14T06:17:38;19.60;99.90
48728;DHT22;34527;45.618;5.130;2023-06-14T06:20:04;19.70;99.90
48728;DHT22;34527;45.618;5.130;2023-06-14T06:22:31;19.80;99.90
48728;DHT22;34527;45.618;5.130;2023-06-14T06:24:57;19.90;99.90
48728;DHT22;34527;45.618;5.130;2023-06-14T06:27:22;19.90;99.90
48728;DHT22;34527;45.618;5.130;2023-06-14T06:29:48;19.90;99.90
48728;DHT22;34527;45.618;5.130;2023-06-14T06:32:15;20.00;99.90
48728;DHT22;34527;45.618;5.130;2023-06-14T06:34:41;20.00;99.90
48728;DHT22;34527;45.618;5.130;2023-06-14T06:37:06;20.10;99.90
48728;DHT22;34527;45.618;5.130;2023-06-14T06:39:32;20.20;99.90
48728;DHT22;34527;45.618;5.130;2023-06-14T06:41:58;20.20;99.90
48728;DHT22;34527;45.618;5.130;2023-06-14T06:44:24;20.20;99.90
48728;DHT22;34527;45.618;5.130;2023-06-14T06:46:49;20.10;99.90
48728;DHT22;34527;45.618;5.130;2023-06-14T06:49:15;20.10;99.90
48728;DHT22;34527;45.618;5.130;2023-06-14T06:51:41;20.10;99.90
48728;DHT22;34527;45.618;5.130;2023-06-14T06:54:08;20.20;99.90
48728;DHT22;34527;45.618;5.130;2023-06-14T06:56:34;20.30;99.90
48728;DHT22;34527;45.618;5.130;2023-06-14T06:59:00;20.50;99.90
48728;DHT22;34527;45.618;5.130;2023-06-14T07:01:26;20.60;99.90
48728;DHT22;34527;45.618;5.130;2023-06-14T07:03:54;20.60;99.90
48728;DHT22;34527;45.618;5.130;2023-06-14T07:06:20;20.60;99.90
48728;DHT22;34527;45.618;5.130;2023-06-14T07:08:46;20.60;99.90
48728;DHT22;34527;45.618;5.130;2023-06-14T07:11:14;20.60;99.90
48728;DHT22;34527;45.618;5.130;2023-06-14T07:13:39;20.70;99.90
48728;DHT22;34527;45.618;5.130;2023-06-14T07:16:05;20.70;99.90
48728;DHT22;34527;45.618;5.130;2023-06-14T07:18:31;20.60;99.90
48728;DHT22;34527;45.618;5.130;2023-06-14T07:20:57;20.80;99.90
48728;DHT22;34527;45.618;5.130;2023-06-14T07:23:23;21.00;99.90
48728;DHT22;34527;45.618;5.130;2023-06-14T07:25:49;21.10;99.90
48728;DHT22;34527;45.618;5.130;2023-06-14T07:28:16;21.00;99.90
48728;DHT22;34527;45.618;5.130;2023-06-14T07:30:41;21.10;99.90
48728;DHT22;34527;45.618;5.130;2023-06-14T07:33:07;21.10;99.90
48728;DHT22;34527;45.618;5.130;2023-06-14T07:35:33;21.00;99.90
48728;DHT22;34527;45.618;5.130;2023-06-14T07:37:59;20.90;99.90
48728;DHT22;34527;45.618;5.130;2023-06-14T07:40:25;21.00;99.90
48728;DHT22;34527;45.618;5.130;2023-06-14T07:42:50;21.20;99.90
48728;DHT22;34527;45.618;5.130;2023-06-14T07:45:16;21.30;99.90
48728;DHT22;34527;45.618;5.130;2023-06-14T07:47:42;21.40;99.90
48728;DHT22;34527;45.618;5.130;2023-06-14T07:50:08;21.50;99.90
48728;DHT22;34527;45.618;5.130;2023-06-14T07:52:34;21.40;99.90
48728;DHT22;34527;45.618;5.130;2023-06-14T07:54:59;21.40;99.90
48728;DHT22;34527;45.618;5.130;2023-06-14T07:57:25;21.30;99.90
48728;DHT22;34527;45.618;5.130;2023-06-14T07:59:51;21.30;99.90
48728;DHT22;34527;45.618;5.130;2023-06-14T08:02:17;21.20;99.90
48728;DHT22;34527;45.618;5.130;2023-06-14T08:04:43;21.40;99.90
48728;DHT22;34527;45.618;5.130;2023-06-14T08:07:09;21.50;99.90
48728;DHT22;34527;45.618;5.130;2023-06-14T08:09:35;21.50;99.90
48728;DHT22;34527;45.618;5.130;2023-06-14T08:12:06;21.50;99.90
48728;DHT22;34527;45.618;5.130;2023-06-14T08:14:35;21.40;99.90
48728;DHT22;34527;45.618;5.130;2023-06-14T08:17:00;21.60;99.90
48728;DHT22;34527;45.618;5.130;2023-06-14T08:19:26;21.70;99.90
48728;DHT22;34527;45.618;5.130;2023-06-14T08:21:51;21.60;99.90
48728;DHT22;34527;45.618;5.130;2023-06-14T08:24:21;21.70;99.90
48728;DHT22;34527;45.618;5.130;2023-06-14T08:26:50;21.70;99.90
48728;DHT22;34527;45.618;5.130;2023-06-14T08:29:15;21.80;99.90
48728;DHT22;34527;45.618;5.130;2023-06-14T08:31:41;21.80;99.90
48728;DHT22;34527;45.618;5.130;2023-06-14T08:34:06;21.80;99.90
48728;DHT22;34527;45.618;5.130;2023-06-14T08:36:32;21.90;99.90
48728;DHT22;34527;45.618;5.130;2023-06-14T08:38:58;22.10;99.90
48728;DHT22;34527;45.618;5.130;2023-06-14T08:41:23;22.10;99.90
48728;DHT22;34527;45.618;5.130;2023-06-14T08:43:52;22.20;99.90
48728;DHT22;34527;45.618;5.130;2023-06-14T08:46:18;22.30;99.90
48728;DHT22;34527;45.618;5.130;2023-06-14T08:48:49;22.00;99.90
48728;DHT22;34527;45.618;5.130;2023-06-14T08:51:18;21.90;99.90
48728;DHT22;34527;45.618;5.130;2023-06-14T08:53:45;22.20;99.90
48728;DHT22;34527;45.618;5.130;2023-06-14T08:56:11;22.20;99.90
48728;DHT22;34527;45.618;5.130;2023-06-14T08:58:42;22.20;99.90
48728;DHT22;34527;45.618;5.130;2023-06-14T09:01:11;22.50;99.90
48728;DHT22;34527;45.618;5.130;2023-06-14T09:03:40;22.60;99.90
48728;DHT22;34527;45.618;5.130;2023-06-14T09:06:07;22.50;99.90
48728;DHT22;34527;45.618;5.130;2023-06-14T09:08:34;22.70;99.90
48728;DHT22;34527;45.618;5.130;2023-06-14T09:11:01;22.80;99.90
48728;DHT22;34527;45.618;5.130;2023-06-14T09:13:27;22.90;99.90
48728;DHT22;34527;45.618;5.130;2023-06-14T09:15:53;23.10;99.90
48728;DHT22;34527;45.618;5.130;2023-06-14T09:18:20;23.20;99.90
48728;DHT22;34527;45.618;5.130;2023-06-14T09:20:46;23.20;99.90
48728;DHT22;34527;45.618;5.130;2023-06-14T09:23:14;23.00;99.90
48728;DHT22;34527;45.618;5.130;2023-06-14T09:25:46;22.90;99.90
48728;DHT22;34527;45.618;5.130;2023-06-14T09:28:11;22.70;99.90
48728;DHT22;34527;45.618;5.130;2023-06-14T09:30:38;22.70;99.90
48728;DHT22;34527;45.618;5.130;2023-06-14T09:33:03;22.80;99.90
48728;DHT22;34527;45.618;5.130;2023-06-14T09:35:31;22.90;99.90
48728;DHT22;34527;45.618;5.130;2023-06-14T09:37:57;23.10;99.90
48728;DHT22;34527;45.618;5.130;2023-06-14T09:40:24;23.50;99.90
48728;DHT22;34527;45.618;5.130;2023-06-14T09:42:50;23.70;99.90
48728;DHT22;34527;45.618;5.130;2023-06-14T09:45:16;23.90;99.90
48728;DHT22;34527;45.618;5.130;2023-06-14T09:47:49;23.90;99.90
48728;DHT22;34527;45.618;5.130;2023-06-14T09:50:14;23.80;99.90
48728;DHT22;34527;45.618;5.130;2023-06-14T09:52:42;23.50;99.90
48728;DHT22;34527;45.618;5.130;2023-06-14T09:55:12;23.40;99.90
48728;DHT22;34527;45.618;5.130;2023-06-14T09:57:41;23.20;99.90
48728;DHT22;34527;45.618;5.130;2023-06-14T10:00:07;23.50;99.90
48728;DHT22;34527;45.618;5.130;2023-06-14T10:02:38;23.80;99.90
48728;DHT22;34527;45.618;5.130;2023-06-14T10:05:05;24.00;99.90
48728;DHT22;34527;45.618;5.130;2023-06-14T10:07:39;23.90;99.90
48728;DHT22;34527;45.618;5.130;2023-06-14T10:10:06;23.80;99.90
48728;DHT22;34527;45.618;5.130;2023-06-14T10:12:33;23.70;99.90
48728;DHT22;34527;45.618;5.130;2023-06-14T10:14:59;23.50;99.90
48728;DHT22;34527;45.618;5.130;2023-06-14T10:17:35;23.50;99.90
48728;DHT22;34527;45.618;5.130;2023-06-14T10:22:49;23.70;99.90
48728;DHT22;34527;45.618;5.130;2023-06-14T10:25:31;23.50;99.90
48728;DHT22;34527;45.618;5.130;2023-06-14T10:28:15;23.60;99.90
48728;DHT22;34527;45.618;5.130;2023-06-14T10:33:29;24.10;99.90
48728;DHT22;34527;45.618;5.130;2023-06-14T10:36:28;24.20;99.90
48728;DHT22;34527;45.618;5.130;2023-06-14T10:39:16;23.60;99.90
48728;DHT22;34527;45.618;5.130;2023-06-14T10:41:42;23.80;99.90
48728;DHT22;34527;45.618;5.130;2023-06-14T10:46:47;24.30;99.90
48728;DHT22;34527;45.618;5.130;2023-06-14T10:49:17;24.40;99.90
48728;DHT22;34527;45.618;5.130;2023-06-14T10:51:52;24.30;99.90
48728;DHT22;34527;45.618;5.130;2023-06-14T10:54:22;24.40;99.90
48728;DHT22;34527;45.618;5.130;2023-06-14T10:56:52;24.60;99.90
48728;DHT22;34527;45.618;5.130;2023-06-14T10:59:19;24.90;99.90
48728;DHT22;34527;45.618;5.130;2023-06-14T11:04:59;24.80;99.90
48728;DHT22;34527;45.618;5.130;2023-06-14T11:10:35;25.00;99.90
48728;DHT22;34527;45.618;5.130;2023-06-14T11:13:02;25.00;99.90
48728;DHT22;34527;45.618;5.130;2023-06-14T11:15:32;25.20;99.90
48728;DHT22;34527;45.618;5.130;2023-06-14T11:18:01;25.20;99.90
48728;DHT22;34527;45.618;5.130;2023-06-14T11:20:27;25.20;99.90
48728;DHT22;34527;45.618;5.130;2023-06-14T11:22:53;25.20;99.90
48728;DHT22;34527;45.618;5.130;2023-06-14T11:25:19;25.40;99.90
48728;DHT22;34527;45.618;5.130;2023-06-14T11:27:45;25.50;99.90
48728;DHT22;34527;45.618;5.130;2023-06-14T11:30:12;25.40;99.90
48728;DHT22;34527;45.618;5.130;2023-06-14T11:32:38;25.60;99.90
48728;DHT22;34527;45.618;5.130;2023-06-14T11:35:05;25.40;99.90
48728;DHT22;34527;45.618;5.130;2023-06-14T11:37:31;25.30;99.90
48728;DHT22;34527;45.618;5.130;2023-06-14T11:40:00;25.30;99.90
48728;DHT22;34527;45.618;5.130;2023-06-14T11:42:29;25.60;99.90
48728;DHT22;34527;45.618;5.130;2023-06-14T11:44:55;25.60;99.90
48728;DHT22;34527;45.618;5.130;2023-06-14T11:47:22;25.50;99.90
48728;DHT22;34527;45.618;5.130;2023-06-14T11:49:48;25.00;99.90
48728;DHT22;34527;45.618;5.130;2023-06-14T11:52:14;25.00;99.90
48728;DHT22;34527;45.618;5.130;2023-06-14T11:54:40;25.10;99.90
48728;DHT22;34527;45.618;5.130;2023-06-14T11:57:07;25.40;99.90
48728;DHT22;34527;45.618;5.130;2023-06-14T11:59:38;25.40;99.90
48728;DHT22;34527;45.618;5.130;2023-06-14T12:02:06;25.40;99.90
48728;DHT22;34527;45.618;5.130;2023-06-14T12:04:32;25.50;99.90
48728;DHT22;34527;45.618;5.130;2023-06-14T12:07:12;25.40;99.90
48728;DHT22;34527;45.618;5.130;2023-06-14T12:09:41;25.50;99.90
48728;DHT22;34527;45.618;5.130;2023-06-14T12:12:09;25.50;99.90
48728;DHT22;34527;45.618;5.130;2023-06-14T12:14:36;25.50;99.90
48728;DHT22;34527;45.618;5.130;2023-06-14T12:17:06;25.40;99.90
48728;DHT22;34527;45.618;5.130;2023-06-14T12:19:44;25.50;99.90
48728;DHT22;34527;45.618;5.130;2023-06-14T12:22:11;25.50;99.90
48728;DHT22;34527;45.618;5.130;2023-06-14T12:24:36;25.40;99.90
48728;DHT22;34527;45.618;5.130;2023-06-14T12:27:03;25.60;99.90
48728;DHT22;34527;45.618;5.130;2023-06-14T12:29:30;25.70;99.90
48728;DHT22;34527;45.618;5.130;2023-06-14T12:31:56;25.70;99.90
48728;DHT22;34527;45.618;5.130;2023-06-14T12:34:25;25.80;99.90
48728;DHT22;34527;45.618;5.130;2023-06-14T12:36:55;26.00;99.90
48728;DHT22;34527;45.618;5.130;2023-06-14T12:39:21;26.00;99.90
48728;DHT22;34527;45.618;5.130;2023-06-14T12:41:47;26.00;99.90
48728;DHT22;34527;45.618;5.130;2023-06-14T12:44:14;26.00;99.90
48728;DHT22;34527;45.618;5.130;2023-06-14T12:46:41;26.00;99.90
48728;DHT22;34527;45.618;5.130;2023-06-14T12:49:11;26.00;99.90
48728;DHT22;34527;45.618;5.130;2023-06-14T12:51:38;26.00;99.90
48728;DHT22;34527;45.618;5.130;2023-06-14T12:54:04;26.00;99.90
48728;DHT22;34527;45.618;5.130;2023-06-14T12:56:30;26.10;99.90
48728;DHT22;34527;45.618;5.130;2023-06-14T12:58:55;26.00;99.90
48728;DHT22;34527;45.618;5.130;2023-06-14T13:01:21;26.10;99.90
48728;DHT22;34527;45.618;5.130;2023-06-14T13:03:47;26.10;99.90
48728;DHT22;34527;45.618;5.130;2023-06-14T13:06:13;26.00;99.90
48728;DHT22;34527;45.618;5.130;2023-06-14T13:08:39;26.20;99.90
48728;DHT22;34527;45.618;5.130;2023-06-14T13:11:04;26.20;99.90
48728;DHT22;34527;45.618;5.130;2023-06-14T13:13:30;26.20;99.90
48728;DHT22;34527;45.618;5.130;2023-06-14T13:15:56;26.20;99.90
48728;DHT22;34527;45.618;5.130;2023-06-14T13:18:21;26.30;99.90
48728;DHT22;34527;45.618;5.130;2023-06-14T13:20:47;26.20;99.90
48728;DHT22;34527;45.618;5.130;2023-06-14T13:23:13;26.10;99.90
48728;DHT22;34527;45.618;5.130;2023-06-14T13:25:39;26.00;99.90
48728;DHT22;34527;45.618;5.130;2023-06-14T13:28:05;25.80;99.90
48728;DHT22;34527;45.618;5.130;2023-06-14T13:30:31;25.70;99.90
48728;DHT22;34527;45.618;5.130;2023-06-14T13:32:57;25.70;99.90
48728;DHT22;34527;45.618;5.130;2023-06-14T13:35:24;25.80;99.90
48728;DHT22;34527;45.618;5.130;2023-06-14T13:37:50;25.80;99.90
48728;DHT22;34527;45.618;5.130;2023-06-14T13:40:16;25.80;99.90
48728;DHT22;34527;45.618;5.130;2023-06-14T13:42:41;25.80;99.90
48728;DHT22;34527;45.618;5.130;2023-06-14T13:45:11;25.80;99.90
48728;DHT22;34527;45.618;5.130;2023-06-14T13:47:37;25.70;99.90
48728;DHT22;34527;45.618;5.130;2023-06-14T13:50:03;25.80;99.90
48728;DHT22;34527;45.618;5.130;2023-06-14T13:52:29;25.80;99.90
48728;DHT22;34527;45.618;5.130;2023-06-14T13:54:55;25.80;99.90
48728;DHT22;34527;45.618;5.130;2023-06-14T13:57:20;25.70;99.90
48728;DHT22;34527;45.618;5.130;2023-06-14T13:59:46;25.70;99.90
48728;DHT22;34527;45.618;5.130;2023-06-14T14:02:12;25.70;99.90
48728;DHT22;34527;45.618;5.130;2023-06-14T14:04:39;25.70;99.90
48728;DHT22;34527;45.618;5.130;2023-06-14T14:07:05;25.70;99.90
48728;DHT22;34527;45.618;5.130;2023-06-14T14:09:32;25.80;99.90
48728;DHT22;34527;45.618;5.130;2023-06-14T14:11:58;25.80;99.90
48728;DHT22;34527;45.618;5.130;2023-06-14T14:14:24;25.80;99.90
48728;DHT22;34527;45.618;5.130;2023-06-14T14:16:50;25.70;99.90
48728;DHT22;34527;45.618;5.130;2023-06-14T14:19:23;25.70;99.90
48728;DHT22;34527;45.618;5.130;2023-06-14T14:21:49;25.80;99.90
48728;DHT22;34527;45.618;5.130;2023-06-14T14:24:15;25.60;99.90
48728;DHT22;34527;45.618;5.130;2023-06-14T14:26:41;25.60;99.90
48728;DHT22;34527;45.618;5.130;2023-06-14T14:29:07;25.80;99.90
48728;DHT22;34527;45.618;5.130;2023-06-14T14:31:33;25.60;99.90
48728;DHT22;34527;45.618;5.130;2023-06-14T14:33:59;25.70;99.90
48728;DHT22;34527;45.618;5.130;2023-06-14T14:36:25;25.60;99.90
48728;DHT22;34527;45.618;5.130;2023-06-14T14:38:50;25.70;99.90
48728;DHT22;34527;45.618;5.130;2023-06-14T14:41:17;25.70;99.90
48728;DHT22;34527;45.618;5.130;2023-06-14T14:43:42;25.80;99.90
48728;DHT22;34527;45.618;5.130;2023-06-14T14:46:08;25.80;99.90
48728;DHT22;34527;45.618;5.130;2023-06-14T14:48:34;25.80;99.90
48728;DHT22;34527;45.618;5.130;2023-06-14T14:50:59;25.70;99.90
48728;DHT22;34527;45.618;5.130;2023-06-14T14:53:25;25.70;99.90
48728;DHT22;34527;45.618;5.130;2023-06-14T14:55:50;25.70;99.90
48728;DHT22;34527;45.618;5.130;2023-06-14T14:58:16;25.70;99.90
48728;DHT22;34527;45.618;5.130;2023-06-14T15:00:45;25.80;99.90
48728;DHT22;34527;45.618;5.130;2023-06-14T15:03:11;25.80;99.90
48728;DHT22;34527;45.618;5.130;2023-06-14T15:05:37;25.80;99.90
48728;DHT22;34527;45.618;5.130;2023-06-14T15:08:03;25.80;99.90
48728;DHT22;34527;45.618;5.130;2023-06-14T15:10:29;25.70;99.90
48728;DHT22;34527;45.618;5.130;2023-06-14T15:12:55;25.60;99.90
48728;DHT22;34527;45.618;5.130;2023-06-14T15:15:21;25.60;99.90
48728;DHT22;34527;45.618;5.130;2023-06-14T15:17:47;25.70;99.90
48728;DHT22;34527;45.618;5.130;2023-06-14T15:20:13;25.60;99.90
48728;DHT22;34527;45.618;5.130;2023-06-14T15:22:40;25.50;99.20
48728;DHT22;34527;45.618;5.130;2023-06-14T15:25:06;25.60;99.40
48728;DHT22;34527;45.618;5.130;2023-06-14T15:27:31;25.60;99.90
48728;DHT22;34527;45.618;5.130;2023-06-14T15:29:57;25.50;99.10
48728;DHT22;34527;45.618;5.130;2023-06-14T15:32:22;25.50;99.90
48728;DHT22;34527;45.618;5.130;2023-06-14T15:34:48;25.50;99.90
48728;DHT22;34527;45.618;5.130;2023-06-14T15:37:14;25.50;98.90
48728;DHT22;34527;45.618;5.130;2023-06-14T15:39:39;25.50;99.90
48728;DHT22;34527;45.618;5.130;2023-06-14T15:42:05;25.50;99.00
48728;DHT22;34527;45.618;5.130;2023-06-14T15:44:31;25.40;99.90